Time;durP1;ratioP1;P1;durP2;ratioP2;P2;SDS_P1;SDS_P2;PMS_P1;PMS_P2;Temp;Humidity;BMP_temperature;BMP_pressure;BME280_temperature;BME280_humidity;BME280_pressure;Samples;Min_cycle;Max_cycle;Signal;HPM_P1;HPM_P2
2023/03/30 00:02:52;;;;;;;19.35;17.15;;;;;;;8.61;100.00;100762.38;10320739;28;20055;-72
2023/03/30 00:07:52;;;;;;;26.10;19.50;;;;;;;8.62;100.00;100760.44;10343931;27;20471;-72
2023/03/30 00:19:53;;;;;;;20.65;17.98;;;;;;;8.66;100.00;100741.56;10334818;28;20122;-72
2023/03/30 00:25:39;;;;;;;22.23;18.13;;;;;;;8.69;100.00;100738.25;10242804;28;20205;-72
2023/03/30 00:31:10;;;;;;;22.27;18.33;;;;;;;8.68;100.00;100725.72;10317907;28;20044;-74
2023/03/30 00:36:36;;;;;;;24.92;19.65;;;;;;;8.69;100.00;100724.63;10345638;28;20663;-72
2023/03/30 00:41:48;;;;;;;22.17;18.45;;;;;;;8.71;100.00;100714.22;10353200;28;20044;-70
2023/03/30 00:46:44;;;;;;;22.60;18.73;;;;;;;8.70;100.00;100702.47;10350981;28;20524;-70
2023/03/30 00:51:41;;;;;;;25.38;20.63;;;;;;;8.73;100.00;100692.91;10339122;28;20514;-70
2023/03/30 00:56:38;;;;;;;24.08;19.48;;;;;;;8.76;100.00;100678.66;10338918;28;20050;-72
2023/03/30 01:01:39;;;;;;;23.85;18.73;;;;;;;8.75;100.00;100660.66;10319722;28;20056;-74
2023/03/30 01:06:39;;;;;;;27.05;20.58;;;;;;;8.65;100.00;100639.91;10341480;28;20059;-72
2023/03/30 01:11:36;;;;;;;23.27;18.08;;;;;;;8.71;100.00;100633.25;10347831;28;20139;-71
2023/03/30 01:17:12;;;;;;;21.70;18.33;;;;;;;8.70;100.00;100619.91;10328272;28;20048;-74
2023/03/30 01:23:00;;;;;;;22.98;18.67;;;;;;;8.69;100.00;100612.84;10338736;28;20070;-73
2023/03/30 01:29:09;;;;;;;28.27;19.20;;;;;;;8.70;100.00;100598.91;10251732;28;20138;-74
2023/03/30 01:34:36;;;;;;;21.83;17.08;;;;;;;8.67;100.00;100604.19;10330783;28;20055;-73
2023/03/30 01:40:02;;;;;;;27.55;18.65;;;;;;;8.68;100.00;100586.69;10346602;28;20406;-71
2023/03/30 01:45:23;;;;;;;23.67;18.33;;;;;;;8.63;100.00;100585.72;10348380;28;20075;-72
2023/03/30 01:50:27;;;;;;;21.90;18.25;;;;;;;8.58;100.00;100577.63;10333084;28;20036;-72
2023/03/30 01:55:30;;;;;;;21.60;17.20;;;;;;;8.52;100.00;100581.63;10348834;28;20048;-74
2023/03/30 02:00:27;;;;;;;22.63;18.15;;;;;;;8.52;100.00;100575.38;10326385;28;20558;-75
2023/03/30 02:05:26;;;;;;;23.35;19.58;;;;;;;8.50;100.00;100567.50;10345626;28;20051;-74
2023/03/30 02:10:28;;;;;;;25.77;19.98;;;;;;;8.45;100.00;100545.81;10351295;28;20476;-74
2023/03/30 02:15:32;;;;;;;27.05;20.13;;;;;;;8.50;100.00;100531.25;10342939;28;20463;-72
2023/03/30 02:20:29;;;;;;;23.67;19.00;;;;;;;8.49;100.00;100514.09;10337853;28;20109;-72
2023/03/30 02:25:27;;;;;;;27.42;20.25;;;;;;;8.45;100.00;100521.28;10346056;28;20055;-73
2023/03/30 02:30:25;;;;;;;29.45;20.30;;;;;;;8.47;100.00;100508.16;10326758;28;20058;-73
2023/03/30 02:35:55;;;;;;;25.27;19.30;;;;;;;8.45;100.00;100504.94;10350027;28;20052;-70
2023/03/30 02:41:17;;;;;;;26.00;18.38;;;;;;;8.44;100.00;100484.25;10346893;28;20044;-70
2023/03/30 02:46:31;;;;;;;24.42;18.30;;;;;;;8.45;100.00;100488.59;10345164;27;20045;-71
2023/03/30 02:51:37;;;;;;;26.63;20.15;;;;;;;8.44;100.00;100478.78;10338934;27;20052;-71
2023/03/30 02:56:46;;;;;;;22.52;17.95;;;;;;;8.46;100.00;100467.59;10336522;27;20040;-72
2023/03/30 03:01:50;;;;;;;29.27;22.08;;;;;;;8.48;100.00;100460.72;10352446;28;20068;-73
2023/03/30 03:06:51;;;;;;;22.88;18.98;;;;;;;8.50;100.00;100447.59;10343975;28;20055;-71
2023/03/30 03:11:48;;;;;;;27.02;20.98;;;;;;;8.52;100.00;100439.91;10336407;28;20528;-71
2023/03/30 03:16:44;;;;;;;23.48;20.08;;;;;;;8.49;100.00;100424.16;10334701;28;20072;-71
2023/03/30 03:21:41;;;;;;;23.63;20.23;;;;;;;8.39;100.00;100413.50;10340524;28;20044;-71
2023/03/30 03:26:37;;;;;;;22.48;18.20;;;;;;;8.24;100.00;100403.81;10342650;28;20130;-72
2023/03/30 03:31:34;;;;;;;25.92;20.92;;;;;;;8.04;100.00;100390.66;10344204;28;20044;-72
2023/03/30 03:36:31;;;;;;;26.25;21.25;;;;;;;7.94;100.00;100383.56;10340633;28;20046;-72
2023/03/30 03:41:27;;;;;;;27.20;19.63;;;;;;;7.90;100.00;100371.66;10333827;28;20055;-71
2023/03/30 03:46:24;;;;;;;21.25;17.90;;;;;;;7.96;100.00;100389.47;10333810;28;20135;-72
2023/03/30 03:51:20;;;;;;;23.05;18.75;;;;;;;8.04;100.00;100391.47;10334811;28;20052;-71
2023/03/30 03:56:17;;;;;;;29.83;21.63;;;;;;;8.10;100.00;100356.75;10335629;27;20084;-72
2023/03/30 04:01:14;;;;;;;29.65;21.25;;;;;;;8.12;100.00;100360.78;10337997;28;20044;-72
2023/03/30 04:06:10;;;;;;;21.88;18.67;;;;;;;8.19;100.00;100366.59;10344916;28;20061;-70
2023/03/30 04:11:10;;;;;;;24.30;19.27;;;;;;;8.21;100.00;100348.03;10351079;28;20072;-72
2023/03/30 04:16:07;;;;;;;25.48;21.20;;;;;;;8.23;100.00;100340.34;10345799;28;20044;-71
2023/03/30 04:21:06;;;;;;;24.10;19.85;;;;;;;8.27;100.00;100334.28;10343621;28;20036;-70
2023/03/30 04:26:04;;;;;;;29.98;21.85;;;;;;;8.29;100.00;100326.59;10339361;28;20045;-70
2023/03/30 04:31:03;;;;;;;27.23;21.02;;;;;;;8.31;100.00;100318.91;10350963;28;20044;-70
2023/03/30 04:36:00;;;;;;;29.30;21.00;;;;;;;8.27;100.00;100312.50;10343386;28;20098;-72
2023/03/30 04:40:59;;;;;;;25.08;19.98;;;;;;;8.19;100.00;100306.69;10351522;28;20060;-71
2023/03/30 04:45:55;;;;;;;27.13;21.38;;;;;;;8.06;100.00;100296.66;10337459;28;20098;-71
2023/03/30 04:50:53;;;;;;;26.83;21.15;;;;;;;8.03;100.00;100286.41;10350510;28;20043;-69
2023/03/30 04:55:50;;;;;;;24.38;19.98;;;;;;;8.06;100.00;100283.06;10348087;28;20048;-69
2023/03/30 05:00:47;;;;;;;24.98;19.80;;;;;;;8.10;100.00;100292.22;10323779;28;20136;-69
2023/03/30 05:05:43;;;;;;;25.27;20.55;;;;;;;8.09;100.00;100290.59;10325042;28;20044;-68
2023/03/30 05:10:40;;;;;;;24.75;18.05;;;;;;;8.13;100.00;100275.25;10344801;28;20067;-70
2023/03/30 05:15:36;;;;;;;26.25;20.48;;;;;;;8.18;100.00;100268.84;10339646;28;20055;-69
2023/03/30 05:20:33;;;;;;;26.52;19.83;;;;;;;8.25;100.00;100271.13;10340335;28;20139;-68
2023/03/30 05:25:30;;;;;;;22.67;20.27;;;;;;;8.25;100.00;100260.25;10338632;28;20412;-69
2023/03/30 05:30:26;;;;;;;24.80;19.85;;;;;;;8.25;100.00;100271.13;10335498;28;20653;-68
2023/03/30 05:35:23;;;;;;;22.17;19.25;;;;;;;8.32;100.00;100255.94;10345912;28;20091;-68
2023/03/30 05:40:19;;;;;;;30.05;20.50;;;;;;;8.40;100.00;100246.22;10339121;28;20049;-68
2023/03/30 05:45:16;;;;;;;24.23;18.25;;;;;;;8.46;100.00;100234.06;10333361;28;20047;-68
2023/03/30 05:50:13;;;;;;;22.20;18.60;;;;;;;8.49;100.00;100260.69;10338569;28;20087;-69
2023/03/30 05:55:10;;;;;;;18.88;16.88;;;;;;;8.55;100.00;100264.88;10339455;28;20113;-69
2023/03/30 06:00:09;;;;;;;20.08;17.38;;;;;;;8.60;100.00;100277.56;10345479;28;20473;-69
2023/03/30 06:05:07;;;;;;;22.88;17.85;;;;;;;8.56;100.00;100277.41;10335024;28;20914;-68
2023/03/30 06:10:05;;;;;;;22.88;18.42;;;;;;;8.50;100.00;100278.66;10341197;27;20641;-68
2023/03/30 06:15:01;;;;;;;18.20;14.95;;;;;;;8.52;100.00;100260.06;10342382;28;20518;-70
2023/03/30 06:19:58;;;;;;;19.55;14.82;;;;;;;8.57;100.00;100246.31;10337793;28;20048;-68
2023/03/30 06:24:55;;;;;;;19.98;15.32;;;;;;;8.81;100.00;100228.72;10346342;28;20044;-68
2023/03/30 06:29:52;;;;;;;19.52;16.60;;;;;;;8.99;100.00;100229.56;10337597;28;20070;-68
2023/03/30 06:34:48;;;;;;;18.42;14.98;;;;;;;8.99;100.00;100241.28;10328765;28;20068;-68
2023/03/30 06:39:45;;;;;;;22.27;16.65;;;;;;;9.01;100.00;100240.97;10336474;28;20598;-68
2023/03/30 06:44:41;;;;;;;21.55;15.93;;;;;;;9.04;100.00;100238.38;10335531;28;20047;-68
2023/03/30 06:49:38;;;;;;;19.27;15.63;;;;;;;8.96;100.00;100235.66;10332814;28;20052;-68
2023/03/30 06:54:34;;;;;;;19.80;15.88;;;;;;;8.97;100.00;100235.31;10340557;28;20071;-69
2023/03/30 06:59:32;;;;;;;21.30;16.67;;;;;;;9.24;100.00;100244.34;10336167;28;20519;-68
2023/03/30 07:04:33;;;;;;;25.13;15.73;;;;;;;9.41;100.00;100238.88;10316775;28;20046;-68
2023/03/30 07:09:29;;;;;;;20.85;14.95;;;;;;;9.59;100.00;100236.16;10331034;27;20427;-69
2023/03/30 07:14:26;;;;;;;25.45;17.83;;;;;;;9.68;100.00;100232.28;10334695;28;20044;-68
2023/03/30 07:19:22;;;;;;;21.55;15.40;;;;;;;9.81;100.00;100244.13;10330012;28;20120;-68
2023/03/30 07:24:19;;;;;;;17.48;15.35;;;;;;;9.92;100.00;100238.34;10332572;28;20039;-68
2023/03/30 07:29:15;;;;;;;18.05;14.57;;;;;;;9.92;100.00;100232.88;10329873;28;20051;-69
2023/03/30 07:34:12;;;;;;;17.95;13.23;;;;;;;9.98;100.00;100237.03;10330276;28;20066;-68
2023/03/30 07:39:09;;;;;;;15.23;12.27;;;;;;;10.14;100.00;100224.44;10306090;28;1048018;-68
2023/03/30 07:44:06;;;;;;;17.77;12.23;;;;;;;10.29;100.00;100223.94;10326593;28;20041;-68
2023/03/30 07:49:03;;;;;;;14.63;12.93;;;;;;;10.41;100.00;100219.72;10336009;28;20063;-68
2023/03/30 07:54:00;;;;;;;18.67;11.90;;;;;;;10.47;100.00;100215.69;10342841;28;20036;-68
2023/03/30 07:58:56;;;;;;;11.50;10.30;;;;;;;10.41;100.00;100217.00;10334676;28;20048;-68
2023/03/30 08:03:57;;;;;;;12.57;11.27;;;;;;;10.46;100.00;100219.53;10339331;28;20044;-69
2023/03/30 08:08:55;;;;;;;11.43;10.23;;;;;;;10.55;100.00;100228.50;10345836;28;20053;-69
2023/03/30 08:13:52;;;;;;;16.13;9.77;;;;;;;10.71;100.00;100218.59;10339867;28;20051;-67
2023/03/30 08:18:53;;;;;;;12.98;10.15;;;;;;;10.74;100.00;100217.94;10338207;27;20056;-69
2023/03/30 08:23:56;;;;;;;11.75;9.20;;;;;;;10.78;100.00;100212.59;10331712;28;20044;-69
2023/03/30 08:28:54;;;;;;;15.57;10.00;;;;;;;11.06;100.00;100210.16;10343102;28;20052;-68
2023/03/30 08:33:51;;;;;;;9.75;8.73;;;;;;;11.33;100.00;100208.03;10342705;28;20119;-69
2023/03/30 08:38:47;;;;;;;11.55;8.98;;;;;;;11.49;100.00;100210.94;10335842;28;20058;-69
2023/03/30 08:44:01;;;;;;;10.70;8.93;;;;;;;11.25;100.00;100206.16;10322968;28;20404;-69
2023/03/30 08:49:00;;;;;;;14.40;10.43;;;;;;;11.08;100.00;100202.41;10325846;28;20079;-69
2023/03/30 08:54:07;;;;;;;15.20;9.95;;;;;;;11.07;100.00;100206.31;10320844;28;20072;-68
2023/03/30 08:59:26;;;;;;;13.68;9.88;;;;;;;10.99;100.00;100193.47;10328148;28;20079;-68
2023/03/30 09:04:55;;;;;;;11.43;9.20;;;;;;;11.26;100.00;100207.78;10334233;28;20050;-68
2023/03/30 09:09:54;;;;;;;10.52;9.40;;;;;;;11.75;100.00;100197.00;10320653;28;20428;-68
2023/03/30 09:14:57;;;;;;;12.75;9.77;;;;;;;11.82;100.00;100183.56;10343496;28;20435;-69
2023/03/30 09:20:05;;;;;;;13.35;10.75;;;;;;;11.76;100.00;100169.25;10344357;28;20051;-68
2023/03/30 09:25:11;;;;;;;12.98;10.63;;;;;;;12.19;100.00;100172.69;10345667;28;20550;-70
2023/03/30 09:30:20;;;;;;;14.18;10.00;;;;;;;12.35;100.00;100179.06;10329235;28;20566;-69
2023/03/30 09:35:27;;;;;;;10.82;9.70;;;;;;;12.41;100.00;100185.91;10334869;28;20128;-68
2023/03/30 09:40:42;;;;;;;11.75;10.55;;;;;;;12.23;100.00;100181.81;10328916;28;20119;-68
2023/03/30 09:45:41;;;;;;;11.30;10.10;;;;;;;12.30;100.00;100190.28;10328628;28;20036;-68
2023/03/30 09:50:41;;;;;;;13.52;11.00;;;;;;;12.30;100.00;100179.31;10330973;28;20054;-69
2023/03/30 09:55:38;;;;;;;11.63;9.88;;;;;;;12.39;100.00;100188.22;10333716;28;20411;-69
2023/03/30 10:00:35;;;;;;;15.60;10.55;;;;;;;12.47;100.00;100177.47;10334742;28;20055;-69
2023/03/30 10:05:35;;;;;;;10.90;9.30;;;;;;;13.01;100.00;100153.25;10327311;28;20087;-69
2023/03/30 10:10:37;;;;;;;10.07;9.02;;;;;;;13.37;100.00;100150.75;10334144;27;20169;-68
2023/03/30 10:15:37;;;;;;;11.70;10.10;;;;;;;13.85;100.00;100152.44;10334618;28;20040;-69
2023/03/30 10:20:35;;;;;;;9.98;8.57;;;;;;;13.81;100.00;100156.25;10331356;28;21418;-68
2023/03/30 10:25:32;;;;;;;11.90;8.98;;;;;;;13.92;100.00;100134.50;10322101;28;20040;-68
2023/03/30 10:30:31;;;;;;;10.98;8.90;;;;;;;13.49;100.00;100145.19;10346583;28;20087;-68
2023/03/30 10:35:35;;;;;;;13.57;8.93;;;;;;;13.32;100.00;100156.47;10331621;28;20051;-68
2023/03/30 10:40:38;;;;;;;11.68;8.75;;;;;;;13.17;100.00;100156.06;10332838;28;20397;-69
2023/03/30 10:45:48;;;;;;;10.93;8.77;;;;;;;13.38;100.00;100138.63;10322142;28;20052;-68
2023/03/30 10:51:03;;;;;;;16.15;8.68;;;;;;;13.41;100.00;100130.47;10342518;28;20076;-69
2023/03/30 10:56:25;;;;;;;11.50;8.55;;;;;;;13.47;100.00;100133.75;10322684;28;20499;-66
2023/03/30 11:01:49;;;;;;;10.50;8.77;;;;;;;13.38;100.00;100138.63;10342109;28;20068;-68
2023/03/30 11:06:48;;;;;;;10.05;7.97;;;;;;;13.41;100.00;100163.44;10342530;28;20044;-67
2023/03/30 11:12:01;;;;;;;10.30;8.20;;;;;;;13.49;100.00;100128.72;10340346;28;20040;-69
2023/03/30 11:17:00;;;;;;;;;;;;;;;13.90;100.00;100143.09;10345082;28;20043;-68
2023/03/30 11:21:59;;;;;;;9.48;7.78;;;;;;;14.28;100.00;100119.69;10341855;27;20471;-68
2023/03/30 11:27:17;;;;;;;12.45;9.18;;;;;;;14.65;100.00;100116.63;10333288;28;20048;-68
2023/03/30 11:32:26;;;;;;;10.20;7.85;;;;;;;14.91;100.00;100114.03;10331959;28;20127;-68
2023/03/30 11:37:32;;;;;;;8.55;7.30;;;;;;;15.28;100.00;100121.84;10337030;28;20509;-68
2023/03/30 11:42:30;;;;;;;8.35;7.53;;;;;;;15.74;100.00;100135.69;10319373;28;20070;-68
2023/03/30 11:47:52;;;;;;;9.02;7.95;;;;;;;16.34;100.00;100087.41;10330404;27;20044;-68
2023/03/30 11:53:21;;;;;;;8.15;7.28;;;;;;;15.74;100.00;100099.88;10335092;28;20553;-68
2023/03/30 11:58:46;;;;;;;7.82;7.00;;;;;;;15.67;100.00;100105.22;10338940;28;20518;-68
2023/03/30 12:03:49;;;;;;;8.30;7.50;;;;;;;15.89;100.00;100244.25;10328594;28;20135;-68
2023/03/30 12:09:01;;;;;;;13.00;7.20;;;;;;;15.02;100.00;100117.00;10333286;28;20068;-68
2023/03/30 12:13:59;;;;;;;8.30;7.47;;;;;;;14.38;100.00;100151.34;10344743;28;20048;-68
2023/03/30 12:19:21;;;;;;;10.45;7.53;;;;;;;13.91;100.00;100160.41;10325211;28;20079;-68
2023/03/30 12:24:28;;;;;;;9.43;7.20;;;;;;;12.92;100.00;100212.16;10331833;28;20127;-68
2023/03/30 12:29:50;;;;;;;11.05;7.28;;;;;;;11.68;100.00;100219.47;10328669;28;20049;-68
2023/03/30 12:34:50;;;;;;;13.30;6.70;;;;;;;11.27;100.00;100212.88;10328141;28;20048;-67
2023/03/30 12:40:17;;;;;;;11.98;6.80;;;;;;;11.31;100.00;100222.03;10339536;28;20075;-67
2023/03/30 12:45:14;;;;;;;11.50;7.15;;;;;;;12.16;100.00;100211.69;10316780;28;20102;-68
2023/03/30 12:50:29;;;;;;;13.90;6.97;;;;;;;12.30;100.00;100200.41;10332647;28;20059;-68
2023/03/30 12:55:26;;;;;;;16.83;7.60;;;;;;;13.21;100.00;100211.06;10333768;28;20331;-68
2023/03/30 13:00:31;;;;;;;15.02;7.65;;;;;;;13.57;100.00;100234.06;10331974;28;20066;-68
2023/03/30 13:05:35;;;;;;;14.23;7.18;;;;;;;12.93;100.00;100206.34;10338074;28;20051;-68
2023/03/30 13:10:35;;;;;;;17.17;6.95;;;;;;;13.11;100.00;100201.38;10328014;28;20123;-68
2023/03/30 13:15:34;;;;;;;11.75;6.85;;;;;;;13.75;100.00;100196.91;10319518;28;20089;-68
2023/03/30 13:20:55;;;;;;;18.27;7.50;;;;;;;14.19;100.00;100188.59;10341763;28;20044;-68
2023/03/30 13:26:03;;;;;;;15.40;8.25;;;;;;;13.89;100.00;100180.00;10337581;28;20102;-69
2023/03/30 13:31:41;;;;;;;12.90;8.30;;;;;;;13.86;100.00;100188.94;10334805;28;20408;-68
2023/03/30 13:37:05;;;;;;;13.52;8.07;;;;;;;13.53;100.00;100216.69;10332647;28;20056;-68
2023/03/30 13:42:10;;;;;;;11.68;7.07;;;;;;;15.87;100.00;100190.66;10344528;28;20048;-68
2023/03/30 13:47:26;;;;;;;11.80;7.85;;;;;;;16.33;100.00;100174.09;10311429;28;20044;-67
2023/03/30 13:52:30;;;;;;;10.60;7.35;;;;;;;14.65;100.00;100182.66;10333211;28;20044;-67
2023/03/30 13:57:34;;;;;;;16.08;7.22;;;;;;;14.32;100.00;100192.06;10330083;28;20483;-67
2023/03/30 14:02:30;;;;;;;8.35;6.30;;;;;;;13.87;100.00;100179.53;10332266;28;20128;-68
2023/03/30 14:07:29;;;;;;;12.98;7.57;;;;;;;14.07;100.00;100192.25;10332414;28;20043;-67
2023/03/30 14:12:25;;;;;;;11.30;6.95;;;;;;;13.90;100.00;100192.56;10340051;28;20491;-68
2023/03/30 14:17:23;;;;;;;10.27;7.13;;;;;;;13.88;100.00;100189.41;10328156;28;20087;-68
2023/03/30 14:22:26;;;;;;;8.00;6.40;;;;;;;13.66;100.00;100210.78;10319369;28;20130;-68
2023/03/30 14:27:22;;;;;;;11.13;6.72;;;;;;;13.68;100.00;100197.50;10334943;28;20059;-67
2023/03/30 14:32:22;;;;;;;11.75;7.40;;;;;;;13.68;100.00;100215.94;10330878;28;20110;-68
2023/03/30 14:37:21;;;;;;;10.63;7.22;;;;;;;13.93;100.00;100178.13;10320994;28;20039;-68
2023/03/30 14:42:22;;;;;;;10.48;7.43;;;;;;;14.43;100.00;100184.84;10326624;28;20416;-68
2023/03/30 14:47:22;;;;;;;9.67;7.70;;;;;;;16.06;100.00;100176.81;10326936;28;20056;-68
2023/03/30 14:52:21;;;;;;;11.50;7.45;;;;;;;17.42;100.00;100189.81;10321823;28;20048;-68
2023/03/30 14:57:20;;;;;;;10.25;7.63;;;;;;;16.54;100.00;100185.44;10326979;28;20058;-68
2023/03/30 15:02:22;;;;;;;11.77;6.72;;;;;;;16.93;100.00;100185.25;10343542;28;20058;-68
2023/03/30 15:07:21;;;;;;;14.40;7.43;;;;;;;15.32;100.00;100188.81;10339205;28;20044;-68
2023/03/30 15:12:24;;;;;;;10.05;7.47;;;;;;;14.73;100.00;100184.38;10335944;28;20691;-69
2023/03/30 15:17:23;;;;;;;11.35;6.93;;;;;;;14.01;100.00;100193.66;10322467;28;20052;-68
2023/03/30 15:22:27;;;;;;;8.88;6.43;;;;;;;14.22;100.00;100187.09;10321175;28;20486;-69
2023/03/30 15:27:23;;;;;;;10.07;7.07;;;;;;;14.79;100.00;100177.47;10338730;28;20128;-68
2023/03/30 15:32:28;;;;;;;10.90;6.43;;;;;;;14.58;100.00;100176.97;10332465;27;20048;-69
2023/03/30 15:37:24;;;;;;;12.30;6.60;;;;;;;14.06;100.00;100196.16;10326263;28;20040;-68
2023/03/30 15:42:39;;;;;;;9.27;6.80;;;;;;;12.60;100.00;100225.66;10328392;27;20043;-68
2023/03/30 15:47:38;;;;;;;9.45;6.28;;;;;;;12.60;100.00;100225.66;10335960;28;20048;-68
2023/03/30 15:52:36;;;;;;;11.80;6.35;;;;;;;12.63;100.00;100252.44;10328227;28;20492;-70
2023/03/30 15:57:34;;;;;;;10.73;6.55;;;;;;;12.38;100.00;100230.47;10332851;27;20496;-69
2023/03/30 16:02:31;;;;;;;11.57;6.80;;;;;;;12.42;100.00;100230.59;10343885;28;20123;-69
2023/03/30 16:07:30;;;;;;;9.85;6.55;;;;;;;13.09;100.00;100231.13;10341818;28;20048;-73
2023/03/30 16:12:29;;;;;;;11.57;6.30;;;;;;;12.79;100.00;100227.84;10349546;28;20612;-74
2023/03/30 16:17:25;;;;;;;13.40;6.72;;;;;;;12.26;100.00;100235.94;10344874;28;20426;-73
2023/03/30 16:22:22;;;;;;;12.68;7.60;;;;;;;13.75;100.00;100215.34;10342533;28;20048;-73
2023/03/30 16:27:18;;;;;;;10.63;7.88;;;;;;;13.09;100.00;100231.13;10336108;28;20419;-73
2023/03/30 16:32:15;;;;;;;13.52;8.30;;;;;;;12.58;100.00;100227.97;10328085;28;20465;-73
2023/03/30 16:37:11;;;;;;;15.27;7.82;;;;;;;12.54;100.00;100229.78;10328270;28;20682;-73
2023/03/30 16:42:08;;;;;;;12.25;7.53;;;;;;;12.36;100.00;100227.25;10342750;28;20472;-73
2023/03/30 16:47:04;;;;;;;13.80;7.18;;;;;;;12.25;100.00;100219.84;10341283;28;20123;-73
2023/03/30 16:52:01;;;;;;;16.77;7.10;;;;;;;12.22;100.00;100226.78;10343362;28;20135;-73
2023/03/30 16:57:00;;;;;;;18.15;7.60;;;;;;;12.21;100.00;100228.75;10341983;28;20139;-73
2023/03/30 17:01:58;;;;;;;16.25;7.47;;;;;;;12.24;100.00;100224.53;10338836;28;20050;-73
2023/03/30 17:06:55;;;;;;;21.27;8.38;;;;;;;12.17;100.00;100238.00;10336339;28;20082;-73
2023/03/30 17:11:51;;;;;;;15.13;7.50;;;;;;;12.21;100.00;100226.00;10333565;28;20044;-73
2023/03/30 17:16:47;;;;;;;15.77;7.50;;;;;;;12.06;100.00;100242.31;10332750;28;20163;-74
2023/03/30 17:21:44;;;;;;;12.43;7.18;;;;;;;11.44;100.00;100239.34;10345363;28;20062;-74
2023/03/30 17:26:41;;;;;;;17.17;8.27;;;;;;;11.20;100.00;100244.66;10321923;28;20089;-73
2023/03/30 17:31:38;;;;;;;18.58;8.65;;;;;;;11.04;100.00;100250.72;10333638;28;20052;-73
2023/03/30 17:36:34;;;;;;;15.15;7.90;;;;;;;11.13;100.00;100262.41;10319807;28;20052;-72
2023/03/30 17:41:33;;;;;;;22.92;8.98;;;;;;;11.16;100.00;100259.03;10318439;28;20048;-73
2023/03/30 17:46:31;;;;;;;16.38;7.82;;;;;;;11.23;100.00;100263.16;10326931;28;20131;-72
2023/03/30 17:51:28;;;;;;;17.58;7.90;;;;;;;11.25;100.00;100261.69;10341623;28;20048;-72
2023/03/30 17:56:24;;;;;;;19.08;7.95;;;;;;;11.22;100.00;100261.56;10334536;28;20058;-72
2023/03/30 18:01:21;;;;;;;17.70;8.30;;;;;;;11.19;100.00;100259.50;10327022;28;20415;-72
2023/03/30 18:06:20;;;;;;;16.98;7.80;;;;;;;11.27;100.00;100264.09;10344621;28;20047;-72
2023/03/30 18:11:17;;;;;;;14.23;7.20;;;;;;;11.30;100.00;100261.50;10338170;28;20082;-72
2023/03/30 18:16:16;;;;;;;16.58;8.52;;;;;;;11.44;100.00;100257.69;10333726;28;20515;-71
2023/03/30 18:21:15;;;;;;;13.57;7.82;;;;;;;11.46;100.00;100253.47;10345015;28;20044;-71
2023/03/30 18:26:12;;;;;;;14.40;7.43;;;;;;;11.50;100.00;100257.13;10343440;27;20430;-72
2023/03/30 18:31:10;;;;;;;19.33;8.20;;;;;;;11.31;100.00;100281.47;10334917;28;20058;-71
2023/03/30 18:36:11;;;;;;;13.35;7.80;;;;;;;11.02;100.00;100296.75;10344042;28;20074;-73
2023/03/30 18:41:12;;;;;;;20.80;9.30;;;;;;;10.80;100.00;100294.31;10340003;28;20040;-71
2023/03/30 18:46:11;;;;;;;14.50;8.65;;;;;;;10.63;100.00;100309.69;10337918;28;20082;-71
2023/03/30 18:51:10;;;;;;;18.38;8.35;;;;;;;10.61;100.00;100311.94;10339202;28;20539;-71
2023/03/30 18:56:10;;;;;;;21.85;8.38;;;;;;;10.64;100.00;100314.00;10346767;28;20070;-71
2023/03/30 19:01:07;;;;;;;21.63;9.70;;;;;;;10.77;100.00;100308.63;10343645;27;20143;-71
2023/03/30 19:06:18;;;;;;;21.85;9.55;;;;;;;10.82;100.00;100311.22;10340730;28;20143;-67
2023/03/30 19:11:19;;;;;;;16.98;8.13;;;;;;;10.81;100.00;100306.84;10331838;28;20044;-66
2023/03/30 19:16:17;;;;;;;19.73;8.23;;;;;;;10.73;100.00;100295.63;10339019;28;20123;-66
2023/03/30 19:21:16;;;;;;;17.10;9.30;;;;;;;10.82;100.00;100297.53;10342530;28;20044;-65
2023/03/30 19:26:13;;;;;;;20.17;8.32;;;;;;;10.84;100.00;100289.81;10323905;28;20071;-67
2023/03/30 19:31:14;;;;;;;16.83;8.88;;;;;;;10.81;100.00;100307.66;10339535;28;20055;-67
2023/03/30 19:36:12;;;;;;;17.53;9.10;;;;;;;10.75;100.00;100308.97;10330376;28;20048;-67
2023/03/30 19:41:10;;;;;;;24.65;8.88;;;;;;;10.82;100.00;100308.47;10340633;28;20048;-67
2023/03/30 19:46:07;;;;;;;17.05;8.85;;;;;;;10.85;100.00;100296.88;10346083;28;21297;-67
2023/03/30 19:51:04;;;;;;;18.10;7.72;;;;;;;10.80;100.00;100294.31;10339333;28;20040;-67
2023/03/30 19:56:01;;;;;;;17.80;7.75;;;;;;;10.67;100.00;100299.66;10334923;28;20040;-68
2023/03/30 20:01:02;;;;;;;17.63;8.48;;;;;;;10.27;100.00;100304.63;10339074;28;20186;-67
2023/03/30 20:06:00;;;;;;;21.58;9.40;;;;;;;10.12;100.00;100303.22;10340355;28;20079;-67
2023/03/30 20:10:56;;;;;;;14.75;8.02;;;;;;;10.09;100.00;100310.13;10345805;28;20052;-71
2023/03/30 20:16:21;;;;;;;23.45;10.15;;;;;;;10.11;100.00;100305.13;10360971;27;20464;-78
2023/03/30 20:21:21;;;;;;;22.88;9.95;;;;;;;10.11;100.00;100307.06;10338667;28;20086;-71
2023/03/30 20:26:18;;;;;;;23.23;10.38;;;;;;;10.02;100.00;100300.81;10341806;28;20046;-72
2023/03/30 20:31:15;;;;;;;24.83;9.55;;;;;;;10.00;100.00;100305.78;10347050;28;20135;-72
2023/03/30 20:36:12;;;;;;;14.88;8.90;;;;;;;10.00;100.00;100316.72;10336557;28;20051;-72
2023/03/30 20:41:10;;;;;;;22.35;10.30;;;;;;;10.02;100.00;100309.81;10343298;28;20069;-72
2023/03/30 20:46:08;;;;;;;22.35;9.98;;;;;;;10.00;100.00;100305.78;10337105;28;20098;-72
2023/03/30 20:51:15;;;;;;;17.05;8.93;;;;;;;9.97;100.00;100312.72;10346271;28;20059;-72
2023/03/30 20:56:11;;;;;;;23.33;8.40;;;;;;;9.89;100.00;100319.00;10337694;28;20507;-72
2023/03/30 21:01:23;;;;;;;21.15;8.95;;;;;;;9.79;100.00;100314.63;10343855;28;20679;-73
2023/03/30 21:06:22;;;;;;;19.20;9.18;;;;;;;9.78;100.00;100315.78;10345758;28;20051;-74
2023/03/30 21:11:19;;;;;;;21.67;7.05;;;;;;;9.67;100.00;100314.50;10340607;28;20067;-73
2023/03/30 21:16:16;;;;;;;28.63;8.45;;;;;;;9.66;100.00;100323.81;10346135;28;20040;-71
2023/03/30 21:21:13;;;;;;;22.75;6.50;;;;;;;9.58;100.00;100311.75;10343411;28;20048;-79
2023/03/30 21:26:11;;;;;;;25.33;7.75;;;;;;;9.59;100.00;100318.84;10346448;28;20415;-77
2023/03/30 21:31:10;;;;;;;23.05;6.70;;;;;;;9.58;100.00;100310.97;10351964;28;20052;-75
2023/03/30 21:36:07;;;;;;;26.00;6.45;;;;;;;9.55;100.00;100317.06;10331999;28;20047;-73
2023/03/30 21:41:11;;;;;;;24.15;6.30;;;;;;;9.57;100.00;100301.19;10345479;28;20105;-76
2023/03/30 21:46:11;;;;;;;18.95;7.20;;;;;;;9.58;100.00;100300.03;10341099;28;20460;-76
2023/03/30 21:51:12;;;;;;;30.38;7.28;;;;;;;9.58;100.00;100310.97;10345012;28;20079;-74
2023/03/30 21:56:12;;;;;;;24.85;8.55;;;;;;;9.55;100.00;100303.44;10343518;28;20063;-74
2023/03/30 22:01:09;;;;;;;23.00;6.70;;;;;;;9.54;100.00;100304.53;10346612;28;20648;-72
2023/03/30 22:06:10;;;;;;;32.22;8.50;;;;;;;9.50;100.00;100288.00;10336784;28;20052;-73
2023/03/30 22:11:11;;;;;;;18.05;6.35;;;;;;;9.45;100.00;100286.25;10344551;28;20093;-73
2023/03/30 22:16:30;;;;;;;20.05;6.65;;;;;;;9.41;100.00;100271.63;10334078;28;20044;-73
2023/03/30 22:21:32;;;;;;;27.55;7.82;;;;;;;9.44;100.00;100273.72;10338123;28;20457;-73
2023/03/30 22:26:29;;;;;;;17.77;5.70;;;;;;;9.50;100.00;100259.94;10342704;27;20721;-73
2023/03/30 22:31:26;;;;;;;18.05;5.53;;;;;;;9.50;100.00;100266.19;10343792;28;20081;-76
2023/03/30 22:36:28;;;;;;;19.95;6.22;;;;;;;9.56;100.00;100255.88;10345842;28;20094;-76
2023/03/30 22:41:26;;;;;;;29.45;9.05;;;;;;;9.58;100.00;100245.47;10340545;28;20068;-75
2023/03/30 22:46:24;;;;;;;29.83;9.98;;;;;;;9.59;100.00;100247.06;10348204;28;20075;-74